createdAt,value
2022-09-10T00:01:02.213Z,8.09
2022-09-10T00:02:05.264Z,8.07
2022-09-10T00:03:07.983Z,8.04
2022-09-10T00:04:10.482Z,7.98
2022-09-10T00:05:12.917Z,7.94
2022-09-10T00:06:15.865Z,7.91
2022-09-10T00:07:18.308Z,7.82
2022-09-10T00:08:20.750Z,7.80
2022-09-10T00:09:23.238Z,7.76
2022-09-10T00:10:26.514Z,7.69
2022-09-10T00:11:28.948Z,7.65
2022-09-10T00:12:31.613Z,7.65
2022-09-10T00:13:34.069Z,7.64
2022-09-10T00:14:36.605Z,7.62
2022-09-10T00:15:39.045Z,7.63
2022-09-10T00:16:41.587Z,7.65
2022-09-10T00:17:44.246Z,7.63
2022-09-10T00:18:46.682Z,7.57
2022-09-10T00:19:49.160Z,7.58
2022-09-10T00:20:52.020Z,7.59
2022-09-10T00:21:54.764Z,7.58
2022-09-10T00:22:57.318Z,7.59
2022-09-10T00:23:59.765Z,7.58
2022-09-10T00:25:06.235Z,7.61
2022-09-10T00:26:06.905Z,7.63
2022-09-10T00:27:09.377Z,7.65
2022-09-10T00:28:11.843Z,7.64
2022-09-10T00:29:14.603Z,7.68
2022-09-10T00:30:18.188Z,7.68
2022-09-10T00:31:20.864Z,7.70
2022-09-10T00:32:23.314Z,7.70
2022-09-10T00:33:25.761Z,7.73
2022-09-10T00:34:28.248Z,7.73
2022-09-10T00:35:30.766Z,7.74
2022-09-10T00:36:33.728Z,7.72
2022-09-10T00:37:36.165Z,7.75
2022-09-10T00:38:38.670Z,7.72
2022-09-10T00:39:41.312Z,7.68
2022-09-10T00:40:44.063Z,7.60
2022-09-10T00:41:46.619Z,7.50
2022-09-10T00:42:49.094Z,7.45
2022-09-10T00:43:51.611Z,7.40
2022-09-10T00:44:54.049Z,7.44
2022-09-10T00:45:56.605Z,7.45
2022-09-10T00:46:59.333Z,7.45
2022-09-10T00:48:01.775Z,7.46
2022-09-10T00:49:04.228Z,7.48
2022-09-10T00:50:07.079Z,7.46
2022-09-10T00:51:09.550Z,7.45
2022-09-10T00:52:12.019Z,7.48
2022-09-10T00:53:14.464Z,7.45
2022-09-10T00:54:16.941Z,7.44
2022-09-10T00:55:19.393Z,7.41
2022-09-10T00:56:22.830Z,7.40
2022-09-10T00:57:25.269Z,7.46
2022-09-10T00:58:27.714Z,7.44
2022-09-10T00:59:30.162Z,7.39
2022-09-10T01:00:33.125Z,7.40
2022-09-10T01:01:35.633Z,7.42
2022-09-10T01:02:38.427Z,7.38
2022-09-10T01:03:40.890Z,7.32
2022-09-10T01:04:43.332Z,7.19
2022-09-10T01:05:45.780Z,7.23
2022-09-10T01:06:48.558Z,7.27
2022-09-10T01:07:51.231Z,7.28
2022-09-10T01:08:53.672Z,7.16
2022-09-10T01:09:56.121Z,7.28
2022-09-10T01:10:58.904Z,7.23
2022-09-10T01:12:03.757Z,7.28
2022-09-10T01:13:05.985Z,7.22
2022-09-10T01:14:08.478Z,7.22
2022-09-10T01:15:10.949Z,7.17
2022-09-10T01:16:14.146Z,7.14
2022-09-10T01:17:16.690Z,7.15
2022-09-10T01:18:19.151Z,7.05
2022-09-10T01:19:22.026Z,7.03
2022-09-10T01:20:24.771Z,6.99
2022-09-10T01:21:27.763Z,6.96
2022-09-10T01:22:30.452Z,7.03
2022-09-10T01:23:32.896Z,6.97
2022-09-10T01:24:35.358Z,6.92
2022-09-10T01:25:37.810Z,6.96
2022-09-10T01:26:40.460Z,7.01
2022-09-10T01:27:43.077Z,7.01
2022-09-10T01:28:45.610Z,7.02
2022-09-10T01:29:48.058Z,7.08
2022-09-10T01:30:50.808Z,7.10
2022-09-10T01:31:53.575Z,7.10
2022-09-10T01:32:56.063Z,7.13
2022-09-10T01:33:58.522Z,7.12
2022-09-10T01:35:00.959Z,7.12
2022-09-10T01:36:03.607Z,7.13
2022-09-10T01:37:06.051Z,7.12
2022-09-10T01:38:08.552Z,7.13
2022-09-10T01:39:11.010Z,7.14
2022-09-10T01:40:13.976Z,7.11
2022-09-10T01:41:16.419Z,7.14
2022-09-10T01:42:18.907Z,7.15
2022-09-10T01:43:21.688Z,7.14
2022-09-10T01:44:24.133Z,7.13
2022-09-10T01:45:26.602Z,7.15
2022-09-10T01:46:29.951Z,7.14
2022-09-10T01:47:32.627Z,7.16
2022-09-10T01:48:35.148Z,7.09
2022-09-10T01:49:37.589Z,7.08
2022-09-10T01:50:40.334Z,7.10
2022-09-10T01:51:42.785Z,7.05
2022-09-10T01:52:45.221Z,7.06
2022-09-10T01:53:47.731Z,7.05
2022-09-10T01:54:50.173Z,6.94
2022-09-10T01:55:52.632Z,6.92
2022-09-10T01:56:55.376Z,6.88
2022-09-10T01:57:57.849Z,6.93
2022-09-10T01:59:00.454Z,6.93
2022-09-10T02:00:03.106Z,6.94
2022-09-10T02:01:05.789Z,6.92
2022-09-10T02:02:08.507Z,6.94
2022-09-10T02:03:11.449Z,6.91
2022-09-10T02:04:14.236Z,6.98
2022-09-10T02:05:16.690Z,7.01
2022-09-10T02:06:20.088Z,7.03
2022-09-10T02:07:22.833Z,6.99
2022-09-10T02:08:25.276Z,6.96
2022-09-10T02:09:27.772Z,6.91
2022-09-10T02:10:31.044Z,6.95
2022-09-10T02:11:33.478Z,6.93
2022-09-10T02:12:35.918Z,6.92
2022-09-10T02:13:38.358Z,6.88
2022-09-10T02:14:41.182Z,6.87
2022-09-10T02:15:43.637Z,6.88
2022-09-10T02:16:46.500Z,6.88
2022-09-10T02:17:48.979Z,6.94
2022-09-10T02:18:51.893Z,6.95
2022-09-10T02:19:54.387Z,6.94
2022-09-10T02:20:57.130Z,6.92
2022-09-10T02:21:59.578Z,6.91
2022-09-10T02:23:02.122Z,6.96
2022-09-10T02:24:04.609Z,6.94
2022-09-10T02:25:07.081Z,6.89
2022-09-10T02:26:10.121Z,6.94
2022-09-10T02:27:12.592Z,6.91
2022-09-10T02:28:15.031Z,6.93
2022-09-10T02:29:17.608Z,6.87
2022-09-10T02:30:21.520Z,6.93
2022-09-10T02:31:24.086Z,6.93
2022-09-10T02:32:26.859Z,6.91
2022-09-10T02:33:29.299Z,6.84
2022-09-10T02:34:31.745Z,6.82
2022-09-10T02:35:34.516Z,6.87
2022-09-10T02:36:37.475Z,6.83
2022-09-10T02:37:39.916Z,6.86
2022-09-10T02:38:42.362Z,6.76
2022-09-10T02:39:44.837Z,6.77
2022-09-10T02:40:47.861Z,6.79
2022-09-10T02:41:51.716Z,6.79
2022-09-10T02:42:54.388Z,6.81
2022-09-10T02:43:56.882Z,6.80
2022-09-10T02:44:59.320Z,6.83
2022-09-10T02:46:01.821Z,6.80
2022-09-10T02:47:04.524Z,6.80
2022-09-10T02:48:06.961Z,6.84
2022-09-10T02:49:09.449Z,6.79
2022-09-10T02:50:12.191Z,6.79
2022-09-10T02:51:14.661Z,6.79
2022-09-10T02:52:17.133Z,6.83
2022-09-10T02:53:19.596Z,6.86
2022-09-10T02:54:22.031Z,6.85
2022-09-10T02:55:24.524Z,6.84
2022-09-10T02:56:28.529Z,6.86
2022-09-10T02:57:30.963Z,6.87
2022-09-10T02:58:33.425Z,6.89
2022-09-10T02:59:35.864Z,6.89
2022-09-10T03:00:38.805Z,6.85
2022-09-10T03:01:41.546Z,6.87
2022-09-10T03:02:44.235Z,6.91
2022-09-10T03:03:46.671Z,6.94
2022-09-10T03:04:49.121Z,6.93
2022-09-10T03:05:51.573Z,6.98
2022-09-10T03:06:54.311Z,7.01
2022-09-10T03:07:56.749Z,6.98
2022-09-10T03:08:59.184Z,7.04
2022-09-10T03:10:01.647Z,6.97
2022-09-10T03:11:04.109Z,6.98
2022-09-10T03:12:06.590Z,7.02
2022-09-10T03:13:09.064Z,7.00
2022-09-10T03:14:11.500Z,7.07
2022-09-10T03:15:13.934Z,7.09
2022-09-10T03:16:18.200Z,7.04
2022-09-10T03:17:20.641Z,7.04
2022-09-10T03:18:23.082Z,7.05
2022-09-10T03:19:25.530Z,7.11
2022-09-10T03:20:29.285Z,7.12
2022-09-10T03:21:31.919Z,7.13
2022-09-10T03:22:34.434Z,7.12
2022-09-10T03:23:37.520Z,7.18
2022-09-10T03:24:40.055Z,7.08
2022-09-10T03:25:42.494Z,7.10
2022-09-10T03:26:45.034Z,7.16
2022-09-10T03:27:47.622Z,7.14
2022-09-10T03:28:50.123Z,7.17
2022-09-10T03:29:52.634Z,7.23
2022-09-10T03:30:55.379Z,7.20
2022-09-10T03:31:57.834Z,7.23
2022-09-10T03:33:00.628Z,7.24
2022-09-10T03:34:03.066Z,7.19
2022-09-10T03:35:05.500Z,7.17
2022-09-10T03:36:08.373Z,7.13
2022-09-10T03:37:11.020Z,7.14
2022-09-10T03:38:13.499Z,7.11
2022-09-10T03:39:15.931Z,7.07
2022-09-10T03:40:19.699Z,7.13
2022-09-10T03:41:22.135Z,7.15
2022-09-10T03:42:25.013Z,7.18
2022-09-10T03:43:27.676Z,7.16
2022-09-10T03:44:30.120Z,7.09
2022-09-10T03:45:32.635Z,7.16
2022-09-10T03:46:36.001Z,7.16
2022-09-10T03:47:38.448Z,7.17
2022-09-10T03:48:40.940Z,7.22
2022-09-10T03:49:43.463Z,7.16
2022-09-10T03:50:46.712Z,7.23
2022-09-10T03:51:49.698Z,7.22
2022-09-10T03:52:52.154Z,7.26
2022-09-10T03:53:54.613Z,7.23
2022-09-10T03:54:57.044Z,7.30
2022-09-10T03:55:59.510Z,7.38
2022-09-10T03:57:02.673Z,7.38
2022-09-10T03:58:05.156Z,7.43
2022-09-10T03:59:07.822Z,7.46
2022-09-10T04:00:10.666Z,7.46
2022-09-10T04:01:13.189Z,7.48
2022-09-10T04:02:16.182Z,7.48
2022-09-10T04:03:19.028Z,7.50
2022-09-10T04:04:21.486Z,7.42
2022-09-10T04:05:23.931Z,7.44
2022-09-10T04:06:27.274Z,7.41
2022-09-10T04:07:29.716Z,7.40
2022-09-10T04:08:32.368Z,7.42
2022-09-10T04:09:34.853Z,7.39
2022-09-10T04:10:37.700Z,7.45
2022-09-10T04:11:40.128Z,7.45
2022-09-10T04:12:42.574Z,7.49
2022-09-10T04:13:45.042Z,7.56
2022-09-10T04:14:47.510Z,7.47
2022-09-10T04:15:49.952Z,7.51
2022-09-10T04:16:52.907Z,7.54
2022-09-10T04:17:55.351Z,7.53
2022-09-10T04:18:57.915Z,7.59
2022-09-10T04:20:00.416Z,7.65
2022-09-10T04:21:02.876Z,7.70
2022-09-10T04:22:05.322Z,7.78
2022-09-10T04:23:07.874Z,7.80
2022-09-10T04:24:10.310Z,7.80
2022-09-10T04:25:12.842Z,7.75
2022-09-10T04:26:16.192Z,7.81
2022-09-10T04:27:18.828Z,7.82
2022-09-10T04:28:21.563Z,7.90
2022-09-10T04:29:24.042Z,7.95
2022-09-10T04:30:28.153Z,7.85
2022-09-10T04:31:30.694Z,7.94
2022-09-10T04:32:33.204Z,8.01
2022-09-10T04:33:35.641Z,8.03
2022-09-10T04:34:38.093Z,7.98
2022-09-10T04:35:40.909Z,7.95
2022-09-10T04:36:43.751Z,8.00
2022-09-10T04:37:46.229Z,8.08
2022-09-10T04:38:48.873Z,8.07
2022-09-10T04:39:51.846Z,8.08
2022-09-10T04:40:54.797Z,8.13
2022-09-10T04:41:57.272Z,8.20
2022-09-10T04:42:59.826Z,8.24
2022-09-10T04:44:02.293Z,8.27
2022-09-10T04:45:04.729Z,8.22
2022-09-10T04:46:07.549Z,8.20
2022-09-10T04:47:10.244Z,8.27
2022-09-10T04:48:12.701Z,8.14
2022-09-10T04:49:15.146Z,8.15
2022-09-10T04:50:19.121Z,8.17
2022-09-10T04:51:21.605Z,8.23
2022-09-10T04:52:24.154Z,8.20
2022-09-10T04:53:26.599Z,8.33
2022-09-10T04:54:29.083Z,8.34
2022-09-10T04:55:31.630Z,8.41
2022-09-10T04:56:34.562Z,8.44
2022-09-10T04:57:37.006Z,8.51
2022-09-10T04:58:39.587Z,8.48
2022-09-10T04:59:42.224Z,8.36
2022-09-10T05:00:44.905Z,8.47
2022-09-10T05:01:47.668Z,8.49
2022-09-10T05:02:50.522Z,8.52
2022-09-10T05:03:52.963Z,8.62
2022-09-10T05:04:55.885Z,8.61
2022-09-10T05:05:58.448Z,8.71
2022-09-10T05:07:01.233Z,8.77
2022-09-10T05:08:03.736Z,8.85
2022-09-10T05:09:06.329Z,8.84
2022-09-10T05:10:09.282Z,8.80
2022-09-10T05:11:11.744Z,8.72
2022-09-10T05:12:14.252Z,8.79
2022-09-10T05:13:16.718Z,8.77
2022-09-10T05:14:19.186Z,8.83
2022-09-10T05:15:23.464Z,8.83
2022-09-10T05:16:27.177Z,8.98
2022-09-10T05:17:29.905Z,9.02
2022-09-10T05:18:32.372Z,9.07
2022-09-10T05:19:34.818Z,9.13
2022-09-10T05:20:37.464Z,9.10
2022-09-10T05:21:39.908Z,9.24
2022-09-10T05:22:42.379Z,9.20
2022-09-10T05:23:44.854Z,9.37
2022-09-10T05:24:47.404Z,9.38
2022-09-10T05:25:49.849Z,9.46
2022-09-10T05:26:52.518Z,9.50
2022-09-10T05:27:54.975Z,9.49
2022-09-10T05:28:57.429Z,9.37
2022-09-10T05:29:59.897Z,9.32
2022-09-10T05:31:02.405Z,9.31
2022-09-10T05:32:04.858Z,9.45
2022-09-10T05:33:07.362Z,9.38
2022-09-10T05:34:09.834Z,9.56
2022-09-10T05:35:12.279Z,9.56
2022-09-10T05:36:16.555Z,9.50
2022-09-10T05:37:18.990Z,9.68
2022-09-10T05:38:21.704Z,9.71
2022-09-10T05:39:24.162Z,9.75
2022-09-10T05:40:26.917Z,9.83
2022-09-10T05:41:29.355Z,9.81
2022-09-10T05:42:33.221Z,9.79
2022-09-10T05:43:35.907Z,9.54
2022-09-10T05:44:38.353Z,9.73
2022-09-10T05:45:40.837Z,9.76
2022-09-10T05:46:43.856Z,9.80
2022-09-10T05:47:46.527Z,9.88
2022-09-10T05:48:49.088Z,9.97
2022-09-10T05:49:51.602Z,10.08
2022-09-10T05:50:54.556Z,10.22
2022-09-10T05:51:57.070Z,10.20
2022-09-10T05:52:59.508Z,10.02
2022-09-10T05:54:02.028Z,10.17
2022-09-10T05:55:04.462Z,10.26
2022-09-10T05:56:07.618Z,10.20
2022-09-10T05:57:10.265Z,10.36
2022-09-10T05:58:12.731Z,10.30
2022-09-10T05:59:15.214Z,10.08
2022-09-10T06:00:18.264Z,10.16
2022-09-10T06:01:21.231Z,10.04
2022-09-10T06:02:24.443Z,10.03
2022-09-10T06:03:27.561Z,10.21
2022-09-10T06:04:30.277Z,10.29
2022-09-10T06:05:32.721Z,10.41
2022-09-10T06:06:35.813Z,10.31
2022-09-10T06:07:38.252Z,10.40
2022-09-10T06:08:40.823Z,10.52
2022-09-10T06:09:43.609Z,10.41
2022-09-10T06:10:46.453Z,10.40
2022-09-10T06:11:48.941Z,10.31
2022-09-10T06:12:51.404Z,10.44
2022-09-10T06:13:53.870Z,10.54
2022-09-10T06:14:56.436Z,10.45
2022-09-10T06:15:58.877Z,10.59
2022-09-10T06:17:01.631Z,10.64
2022-09-10T06:18:04.286Z,10.82
2022-09-10T06:19:06.733Z,10.89
2022-09-10T06:20:09.604Z,11.08
2022-09-10T06:21:13.167Z,11.23
2022-09-10T06:22:16.534Z,11.24
2022-09-10T06:23:19.183Z,10.99
2022-09-10T06:24:21.619Z,11.19
2022-09-10T06:25:24.138Z,11.04
2022-09-10T06:26:26.881Z,10.84
2022-09-10T06:27:29.329Z,10.69
2022-09-10T06:28:31.841Z,10.98
2022-09-10T06:29:34.567Z,11.06
2022-09-10T06:30:37.305Z,11.03
2022-09-10T06:31:39.820Z,10.98
2022-09-10T06:32:42.271Z,11.08
2022-09-10T06:33:44.922Z,10.91
2022-09-10T06:34:47.372Z,11.05
2022-09-10T06:35:53.187Z,11.25
2022-09-10T06:36:54.498Z,11.39
2022-09-10T06:37:56.980Z,11.43
2022-09-10T06:38:59.539Z,11.58
2022-09-10T06:40:02.089Z,11.63
2022-09-10T06:41:04.898Z,11.81
2022-09-10T06:42:07.520Z,11.89
2022-09-10T06:43:09.985Z,12.07
2022-09-10T06:44:12.458Z,12.10
2022-09-10T06:45:14.894Z,11.76
2022-09-10T06:46:56.906Z,11.93
2022-09-10T06:48:47.561Z,12.31
2022-09-10T06:49:32.000Z,12.25
2022-09-10T06:50:34.649Z,12.25
2022-09-10T06:51:37.146Z,12.26
2022-09-10T06:52:39.768Z,12.34
2022-09-10T06:53:42.457Z,12.10
2022-09-10T06:54:44.905Z,12.21
2022-09-10T06:55:47.381Z,12.13
2022-09-10T06:56:50.153Z,12.36
2022-09-10T06:57:52.593Z,12.51
2022-09-10T06:58:55.057Z,12.34
2022-09-10T07:01:13.824Z,12.02
2022-09-10T07:02:16.758Z,12.00
2022-09-10T07:03:19.608Z,12.15
2022-09-10T07:04:22.044Z,12.14
2022-09-10T07:05:24.552Z,12.20
2022-09-10T07:06:28.539Z,11.98
2022-09-10T07:07:31.111Z,12.02
2022-09-10T07:08:33.856Z,12.20
2022-09-10T07:09:36.312Z,11.91
2022-09-10T07:10:39.204Z,12.02
2022-09-10T07:11:42.048Z,12.35
2022-09-10T07:12:44.996Z,12.17
2022-09-10T07:13:47.465Z,12.43
2022-09-10T07:14:49.907Z,12.29
2022-09-10T07:15:52.384Z,12.25
2022-09-10T07:16:55.203Z,12.23
2022-09-10T07:17:57.692Z,12.32
2022-09-10T07:19:00.156Z,12.15
2022-09-10T07:20:02.910Z,12.32
2022-09-10T07:21:05.355Z,12.37
2022-09-10T07:22:08.382Z,12.45
2022-09-10T07:23:12.836Z,12.56
2022-09-10T07:24:15.514Z,12.66
2022-09-10T07:25:17.974Z,12.47
2022-09-10T07:26:21.118Z,12.40
2022-09-10T07:27:23.576Z,12.39
2022-09-10T07:28:26.119Z,12.57
2022-09-10T07:29:28.568Z,12.70
2022-09-10T07:30:31.519Z,12.49
2022-09-10T07:31:33.999Z,12.62
2022-09-10T07:32:36.433Z,12.59
2022-09-10T07:33:38.953Z,12.72
2022-09-10T07:34:41.539Z,12.53
2022-09-10T07:35:44.002Z,12.65
2022-09-10T07:36:46.557Z,12.40
2022-09-10T07:37:49.003Z,12.38
2022-09-10T07:38:51.480Z,12.44
2022-09-10T07:39:53.948Z,12.73
2022-09-10T07:40:56.664Z,12.97
2022-09-10T07:41:59.113Z,13.16
2022-09-10T07:43:01.663Z,12.81
2022-09-10T07:44:04.141Z,13.13
2022-09-10T07:45:06.583Z,13.27
2022-09-10T07:46:09.680Z,13.48
2022-09-10T07:47:12.103Z,13.43
2022-09-10T07:48:14.651Z,13.34
2022-09-10T07:49:17.122Z,13.53
2022-09-10T07:50:21.410Z,13.82
2022-09-10T07:51:23.940Z,13.81
2022-09-10T07:52:26.409Z,13.92
2022-09-10T07:53:28.858Z,13.81
2022-09-10T07:54:31.631Z,13.85
2022-09-10T07:55:34.071Z,13.60
2022-09-10T07:56:36.922Z,13.96
2022-09-10T07:57:39.399Z,14.15
2022-09-10T07:58:41.838Z,14.27
2022-09-10T07:59:44.315Z,14.40
2022-09-10T08:00:47.059Z,14.47
2022-09-10T08:01:49.775Z,14.17
2022-09-10T08:02:52.372Z,14.23
2022-09-10T08:03:55.015Z,14.05
2022-09-10T08:04:57.508Z,14.05
2022-09-10T08:05:59.950Z,14.34
2022-09-10T08:07:02.401Z,14.32
2022-09-10T08:08:04.841Z,14.29
2022-09-10T08:09:07.283Z,14.08
2022-09-10T08:10:10.163Z,13.95
2022-09-10T08:11:12.620Z,14.28
2022-09-10T08:12:15.068Z,14.27
2022-09-10T08:13:17.814Z,14.51
2022-09-10T08:14:20.275Z,14.43
2022-09-10T08:15:22.883Z,14.74
2022-09-10T08:16:25.838Z,14.93
2022-09-10T08:17:28.301Z,14.89
2022-09-10T08:18:30.857Z,14.71
2022-09-10T08:19:33.589Z,14.95
2022-09-10T08:20:36.253Z,14.67
2022-09-10T08:21:38.695Z,14.85
2022-09-10T08:22:41.239Z,14.97
2022-09-10T08:23:43.688Z,15.08
2022-09-10T08:24:46.159Z,15.32
2022-09-10T08:25:49.284Z,15.07
2022-09-10T08:26:51.967Z,15.54
2022-09-10T08:27:54.573Z,16.01
2022-09-10T08:28:57.007Z,16.13
2022-09-10T08:29:59.505Z,16.13
2022-09-10T08:31:02.443Z,16.20
2022-09-10T08:32:04.923Z,16.52
2022-09-10T08:33:07.366Z,16.73
2022-09-10T08:34:09.809Z,16.03
2022-09-10T08:35:12.255Z,16.04
2022-09-10T08:36:16.528Z,16.00
2022-09-10T08:37:19.188Z,16.32
2022-09-10T08:38:21.628Z,16.21
2022-09-10T08:39:24.286Z,16.50
2022-09-10T08:40:27.539Z,16.52
2022-09-10T08:41:30.662Z,16.45
2022-09-10T08:42:33.521Z,16.56
2022-09-10T08:43:35.961Z,16.30
2022-09-10T08:44:38.404Z,16.80
2022-09-10T08:45:40.860Z,16.75
2022-09-10T08:46:43.622Z,17.10
2022-09-10T08:47:46.070Z,17.25
2022-09-10T08:48:48.515Z,17.16
2022-09-10T08:49:50.953Z,17.02
2022-09-10T08:50:53.605Z,17.30
2022-09-10T08:51:56.110Z,17.56
2022-09-10T08:52:58.553Z,17.64
2022-09-10T08:54:00.992Z,17.46
2022-09-10T08:55:03.467Z,16.58
2022-09-10T08:56:06.318Z,16.80
2022-09-10T08:57:08.800Z,16.71
2022-09-10T08:58:11.242Z,16.92
2022-09-10T08:59:13.685Z,16.91
2022-09-10T09:00:17.982Z,17.28
2022-09-10T09:01:20.462Z,16.71
2022-09-10T09:02:47.183Z,16.81
2022-09-10T09:03:27.851Z,16.68
2022-09-10T09:04:30.301Z,16.55
2022-09-10T09:05:32.734Z,16.46
2022-09-10T09:06:35.484Z,16.57
2022-09-10T09:07:38.169Z,16.88
2022-09-10T09:08:40.985Z,16.64
2022-09-10T09:09:43.860Z,16.69
2022-09-10T09:10:46.841Z,16.69
2022-09-10T09:11:49.300Z,16.46
2022-09-10T09:12:51.784Z,16.39
2022-09-10T09:13:54.213Z,16.54
2022-09-10T09:14:56.657Z,16.64
2022-09-10T09:15:59.124Z,16.54
2022-09-10T09:17:01.982Z,16.59
2022-09-10T09:18:04.476Z,16.28
2022-09-10T09:19:06.910Z,16.19
2022-09-10T09:20:09.859Z,15.87
2022-09-10T09:21:12.525Z,16.18
2022-09-10T09:22:14.994Z,16.24
2022-09-10T09:23:17.580Z,16.09
2022-09-10T09:24:20.018Z,16.35
2022-09-10T09:25:22.458Z,16.61
2022-09-10T09:26:26.757Z,16.77
2022-09-10T09:27:29.189Z,16.77
2022-09-10T09:28:32.342Z,16.71
2022-09-10T09:29:34.755Z,16.65
2022-09-10T09:30:37.500Z,16.93
2022-09-10T09:31:40.136Z,17.13
2022-09-10T09:32:42.611Z,17.32
2022-09-10T09:33:45.099Z,17.16
2022-09-10T09:34:47.520Z,16.74
2022-09-10T09:35:50.006Z,16.92
2022-09-10T09:36:52.842Z,16.90
2022-09-10T09:37:55.294Z,16.71
2022-09-10T09:38:57.789Z,16.74
2022-09-10T09:40:00.357Z,16.62
2022-09-10T09:41:03.299Z,16.75
2022-09-10T09:42:05.968Z,16.93
2022-09-10T09:43:08.410Z,17.00
2022-09-10T09:44:10.985Z,17.26
2022-09-10T09:45:13.423Z,17.44
2022-09-10T09:46:16.312Z,17.41
2022-09-10T09:47:18.758Z,17.54
2022-09-10T09:48:21.194Z,17.71
2022-09-10T09:49:23.666Z,18.17
2022-09-10T09:50:26.413Z,18.40
2022-09-10T09:51:28.852Z,18.63
2022-09-10T09:52:31.286Z,18.90
2022-09-10T09:53:33.737Z,18.71
2022-09-10T09:55:09.992Z,18.80
2022-09-10T09:55:40.568Z,19.03
2022-09-10T09:56:43.301Z,18.93
2022-09-10T09:57:46.040Z,19.00
2022-09-10T09:58:48.698Z,19.32
2022-09-10T09:59:51.175Z,19.78
2022-09-10T10:00:54.289Z,19.86
2022-09-10T10:01:57.047Z,19.58
2022-09-10T10:03:00.033Z,19.78
2022-09-10T10:04:02.567Z,19.95
2022-09-10T10:05:05.077Z,19.49
2022-09-10T10:06:07.921Z,19.51
2022-09-10T10:07:10.374Z,19.42
2022-09-10T10:08:12.814Z,19.63
2022-09-10T10:09:15.290Z,19.60
2022-09-10T10:10:18.972Z,19.14
2022-09-10T10:11:21.450Z,18.94
2022-09-10T10:12:23.887Z,18.28
2022-09-10T10:13:26.312Z,18.25
2022-09-10T10:14:28.747Z,18.04
2022-09-10T10:15:31.312Z,17.86
2022-09-10T10:16:34.614Z,17.15
2022-09-10T10:17:37.050Z,17.21
2022-09-10T10:18:39.647Z,17.30
2022-09-10T10:19:42.349Z,17.40
2022-09-10T10:20:45.029Z,17.73
2022-09-10T10:21:47.574Z,17.86
2022-09-10T10:22:50.331Z,17.98
2022-09-10T10:23:52.771Z,18.04
2022-09-10T10:24:55.344Z,17.83
2022-09-10T10:25:57.811Z,17.72
2022-09-10T10:27:00.460Z,17.69
2022-09-10T10:28:02.899Z,17.65
2022-09-10T10:29:05.347Z,17.86
2022-09-10T10:30:09.454Z,17.84
2022-09-10T10:31:12.007Z,18.15
2022-09-10T10:32:14.503Z,18.07
2022-09-10T10:33:16.948Z,17.50
2022-09-10T10:34:19.391Z,16.91
2022-09-10T10:35:21.876Z,16.90
2022-09-10T10:36:26.164Z,17.19
2022-09-10T10:37:28.612Z,17.36
2022-09-10T10:38:31.179Z,17.24
2022-09-10T10:39:34.043Z,17.15
2022-09-10T10:40:37.675Z,17.41
2022-09-10T10:41:40.258Z,17.45
2022-09-10T10:42:42.695Z,17.74
2022-09-10T10:43:45.190Z,18.09
2022-09-10T10:44:47.940Z,17.99
2022-09-10T10:45:50.627Z,17.94
2022-09-10T10:46:53.938Z,17.96
2022-09-10T10:47:56.567Z,18.17
2022-09-10T10:49:03.539Z,17.84
2022-09-10T10:50:03.464Z,17.26
2022-09-10T10:51:05.932Z,17.03
2022-09-10T10:52:08.409Z,17.35
2022-09-10T10:53:10.851Z,17.00
2022-09-10T10:54:13.317Z,17.30
2022-09-10T10:55:15.857Z,17.44
2022-09-10T10:56:18.808Z,17.31
2022-09-10T10:57:21.346Z,17.24
2022-09-10T10:58:23.890Z,17.31
2022-09-10T10:59:26.342Z,17.25
2022-09-10T11:00:29.804Z,17.35
2022-09-10T11:01:32.337Z,17.49
2022-09-10T11:02:35.000Z,17.30
2022-09-10T11:03:37.491Z,17.47
2022-09-10T11:04:39.930Z,17.59
2022-09-10T11:05:42.389Z,17.73
2022-09-10T11:06:45.229Z,17.73
2022-09-10T11:07:47.728Z,17.61
2022-09-10T11:08:50.168Z,17.57
2022-09-10T11:09:52.606Z,17.39
2022-09-10T11:10:55.253Z,17.51
2022-09-10T11:11:57.693Z,17.56
2022-09-10T11:13:00.178Z,17.17
2022-09-10T11:14:02.616Z,17.20
2022-09-10T11:15:05.051Z,17.33
2022-09-10T11:16:08.032Z,16.97
2022-09-10T11:17:10.439Z,17.21
2022-09-10T11:18:12.911Z,17.39
2022-09-10T11:19:15.387Z,17.35
2022-09-10T11:20:28.339Z,17.11
2022-09-10T11:21:23.593Z,16.96
2022-09-10T11:22:26.234Z,17.10
2022-09-10T11:23:28.731Z,17.15
2022-09-10T11:24:31.169Z,17.23
2022-09-10T11:25:33.602Z,17.00
2022-09-10T11:26:36.248Z,16.95
2022-09-10T11:27:38.707Z,16.80
2022-09-10T11:28:41.621Z,16.85
2022-09-10T11:29:44.279Z,16.87
2022-09-10T11:30:46.987Z,16.91
2022-09-10T11:31:49.495Z,16.72
2022-09-10T11:32:51.942Z,16.88
2022-09-10T11:33:54.420Z,16.90
2022-09-10T11:34:56.900Z,16.94
2022-09-10T11:35:59.352Z,16.77
2022-09-10T11:37:02.011Z,16.63
2022-09-10T11:38:04.459Z,16.57
2022-09-10T11:39:06.943Z,16.69
2022-09-10T11:40:09.717Z,16.77
2022-09-10T11:41:12.337Z,16.79
2022-09-10T11:42:15.392Z,16.59
2022-09-10T11:43:18.035Z,16.78
2022-09-10T11:44:20.525Z,17.00
2022-09-10T11:45:22.978Z,17.20
2022-09-10T11:46:25.801Z,17.33
2022-09-10T11:47:28.382Z,17.28
2022-09-10T11:48:30.825Z,17.36
2022-09-10T11:49:33.530Z,17.29
2022-09-10T11:50:36.076Z,17.02
2022-09-10T11:51:38.727Z,17.18
2022-09-10T11:52:41.182Z,17.25
2022-09-10T11:53:43.629Z,17.34
2022-09-10T11:54:46.142Z,17.34
2022-09-10T11:55:48.585Z,17.57
2022-09-10T11:56:51.233Z,17.70
2022-09-10T11:57:53.678Z,17.92
2022-09-10T11:58:56.125Z,18.13
2022-09-10T11:59:58.907Z,18.29
2022-09-10T12:01:01.856Z,18.44
2022-09-10T12:02:04.524Z,18.66
2022-09-10T12:03:07.250Z,19.01
2022-09-10T12:04:09.693Z,19.14
2022-09-10T12:05:12.278Z,19.52
2022-09-10T12:06:15.537Z,19.66
2022-09-10T12:07:18.161Z,19.69
2022-09-10T12:08:20.664Z,19.73
2022-09-10T12:09:23.513Z,19.71
2022-09-10T12:10:26.181Z,19.57
2022-09-10T12:11:28.626Z,19.55
2022-09-10T12:12:31.073Z,19.64
2022-09-10T12:13:33.539Z,19.71
2022-09-10T12:14:36.061Z,19.82
2022-09-10T12:15:38.664Z,19.40
2022-09-10T12:16:41.595Z,19.37
2022-09-10T12:17:44.308Z,19.42
2022-09-10T12:18:46.839Z,19.33
2022-09-10T12:19:49.291Z,19.14
2022-09-10T12:20:51.953Z,19.16
2022-09-10T12:21:54.595Z,19.06
2022-09-10T12:22:57.332Z,19.07
2022-09-10T12:23:59.774Z,19.11
2022-09-10T12:25:02.218Z,19.05
2022-09-10T12:26:05.007Z,19.20
2022-09-10T12:27:07.459Z,19.35
2022-09-10T12:28:10.002Z,19.79
2022-09-10T12:29:12.491Z,20.10
2022-09-10T12:30:15.743Z,20.02
2022-09-10T12:31:18.292Z,19.91
2022-09-10T12:32:20.808Z,19.96
2022-09-10T12:33:23.297Z,19.62
2022-09-10T12:34:25.716Z,19.90
2022-09-10T12:35:28.157Z,19.88
2022-09-10T12:36:31.147Z,19.75
2022-09-10T12:37:33.696Z,19.79
2022-09-10T12:38:36.146Z,19.49
2022-09-10T12:39:38.637Z,19.67
2022-09-10T12:40:41.731Z,19.78
2022-09-10T12:41:44.484Z,19.91
2022-09-10T12:42:47.119Z,20.04
2022-09-10T12:43:49.772Z,19.69
2022-09-10T12:44:52.229Z,19.27
2022-09-10T12:45:54.688Z,19.37
2022-09-10T12:46:57.441Z,19.34
2022-09-10T12:47:59.887Z,19.29
2022-09-10T12:49:02.328Z,19.03
2022-09-10T12:50:05.177Z,18.51
2022-09-10T12:51:07.824Z,18.55
2022-09-10T12:52:10.660Z,18.62
2022-09-10T12:53:13.100Z,18.49
2022-09-10T12:54:15.564Z,18.31
2022-09-10T12:55:18.010Z,18.31
2022-09-10T12:56:20.868Z,17.73
2022-09-10T12:57:23.383Z,17.59
2022-09-10T12:58:25.864Z,17.41
2022-09-10T12:59:28.302Z,17.29
2022-09-10T13:00:31.280Z,17.20
2022-09-10T13:01:34.054Z,17.39
2022-09-10T13:02:36.647Z,17.53
2022-09-10T13:03:39.289Z,17.49
2022-09-10T13:04:41.905Z,17.56
2022-09-10T13:05:44.736Z,17.64
2022-09-10T13:06:47.591Z,17.41
2022-09-10T13:07:50.103Z,17.33
2022-09-10T13:08:52.554Z,17.10
2022-09-10T13:09:54.990Z,17.04
2022-09-10T13:10:57.631Z,17.11
2022-09-10T13:12:00.281Z,17.22
2022-09-10T13:13:02.798Z,17.16
2022-09-10T13:14:05.254Z,17.13
2022-09-10T13:15:07.704Z,17.09
2022-09-10T13:16:11.022Z,17.02
2022-09-10T13:17:13.504Z,17.08
2022-09-10T13:19:26.049Z,17.11
2022-09-10T13:20:28.689Z,16.77
2022-09-10T13:21:31.376Z,16.79
2022-09-10T13:22:34.630Z,16.86
2022-09-10T13:23:37.120Z,16.72
2022-09-10T13:24:39.566Z,16.62
2022-09-10T13:25:42.008Z,16.69
2022-09-10T13:26:44.776Z,16.68
2022-09-10T13:27:47.217Z,16.76
2022-09-10T13:28:49.694Z,16.71
2022-09-10T13:29:52.155Z,16.78
2022-09-10T13:30:54.827Z,16.92
2022-09-10T13:31:57.248Z,16.94
2022-09-10T13:32:59.729Z,16.65
2022-09-10T13:34:02.227Z,16.49
2022-09-10T13:35:04.697Z,16.44
2022-09-10T13:36:07.553Z,16.37
2022-09-10T13:37:09.999Z,16.33
2022-09-10T13:38:12.442Z,16.20
2022-09-10T13:39:14.936Z,16.24
2022-09-10T13:40:17.573Z,16.33
2022-09-10T13:41:20.223Z,16.27
2022-09-10T13:42:22.904Z,16.32